Time;durP1;ratioP1;P1;durP2;ratioP2;P2;SDS_P1;SDS_P2;PMS_P1;PMS_P2;Temp;Humidity;BMP_temperature;BMP_pressure;BME280_temperature;BME280_humidity;BME280_pressure;Samples;Min_cycle;Max_cycle;Signal;HPM_P1;HPM_P2
2023/02/25 00:00:43;;;;;;;29.80;15.98;;;;;;;3.34;77.65;94209.03;5033315;28;20033;-81
2023/02/25 00:03:09;;;;;;;29.85;15.43;;;;;;;3.43;78.43;94217.06;5033562;28;20033;-81
2023/02/25 00:05:38;;;;;;;31.08;15.75;;;;;;;3.48;78.28;94228.69;5049886;28;20047;-81
2023/02/25 00:08:03;;;;;;;32.53;16.73;;;;;;;3.58;78.25;94221.19;5033268;28;20557;-81
2023/02/25 00:10:29;;;;;;;32.30;17.20;;;;;;;3.74;77.82;94218.47;5050861;28;20029;-81
2023/02/25 00:12:54;;;;;;;31.52;15.35;;;;;;;3.58;78.48;94185.25;5049972;28;20068;-81
2023/02/25 00:15:20;;;;;;;27.25;13.13;;;;;;;3.79;78.67;94203.56;5033387;28;20013;-81
2023/02/25 00:17:48;;;;;;;24.65;13.90;;;;;;;3.86;78.67;94203.97;5049665;28;20106;-81
2023/02/25 00:20:14;;;;;;;22.60;12.70;;;;;;;3.92;77.04;94196.69;5049995;28;20029;-81
2023/02/25 00:22:39;;;;;;;22.80;12.98;;;;;;;3.76;76.85;94198.59;5033217;28;20097;-81
2023/02/25 00:25:05;;;;;;;27.40;15.18;;;;;;;3.89;77.14;94206.34;5033374;28;20036;-81
2023/02/25 00:27:31;;;;;;;27.08;14.77;;;;;;;3.98;77.56;94216.00;5049550;28;20029;-81
2023/02/25 00:29:56;;;;;;;23.33;13.90;;;;;;;4.03;76.80;94219.09;5033305;28;20426;-81
2023/02/25 00:32:22;;;;;;;24.23;13.25;;;;;;;3.84;76.23;94201.50;5049963;28;20040;-81
2023/02/25 00:34:47;;;;;;;31.27;13.48;;;;;;;3.99;78.49;94203.06;5033164;28;20041;-81
2023/02/25 00:37:13;;;;;;;24.13;12.52;;;;;;;3.83;77.35;94202.44;5049675;28;20079;-81
2023/02/25 00:39:41;;;;;;;28.73;13.45;;;;;;;4.00;76.97;94201.31;5049741;28;20037;-81
2023/02/25 00:42:08;;;;;;;25.10;14.32;;;;;;;3.97;77.12;94210.03;5033509;28;20449;-81
2023/02/25 00:44:34;;;;;;;31.58;16.02;;;;;;;3.76;77.82;94181.47;5033327;28;20025;-81
2023/02/25 00:46:59;;;;;;;22.05;12.77;;;;;;;3.88;77.74;94202.13;5016367;28;20187;-81
2023/02/25 00:49:25;;;;;;;24.48;13.40;;;;;;;3.91;77.75;94183.94;5050100;28;20033;-81
2023/02/25 00:51:51;;;;;;;21.52;12.30;;;;;;;4.05;77.46;94160.72;5053536;28;20033;-81
2023/02/25 00:54:16;;;;;;;25.67;13.38;;;;;;;4.08;77.10;94183.63;5036873;28;20481;-81
2023/02/25 00:56:42;;;;;;;24.42;13.45;;;;;;;4.05;76.70;94172.75;5052841;28;20057;-81
2023/02/25 00:59:07;;;;;;;24.05;12.57;;;;;;;4.16;76.25;94160.81;5054626;28;20033;-81
2023/02/25 01:01:33;;;;;;;23.38;11.00;;;;;;;4.25;76.77;94161.91;5053292;28;20465;-81
2023/02/25 01:03:58;;;;;;;21.35;10.77;;;;;;;4.19;76.88;94154.63;5053478;28;20037;-81
2023/02/25 01:06:27;;;;;;;23.70;11.77;;;;;;;4.11;76.09;94128.63;5036184;28;20115;-81
2023/02/25 01:08:53;;;;;;;21.60;10.52;;;;;;;4.19;75.84;94141.78;5036513;28;20434;-81
2023/02/25 01:11:26;;;;;;;21.48;10.10;;;;;;;4.18;77.02;94142.69;5036307;28;20017;-81
2023/02/25 01:13:51;;;;;;;20.95;10.82;;;;;;;4.14;76.12;94143.84;5053051;28;20040;-81
2023/02/25 01:16:19;;;;;;;22.27;13.00;;;;;;;4.08;76.37;94145.06;5054033;28;20024;-81
2023/02/25 01:18:47;;;;;;;27.20;13.82;;;;;;;4.14;77.30;94154.13;5036065;28;20056;-81
2023/02/25 01:21:20;;;;;;;23.30;12.50;;;;;;;4.20;76.89;94149.38;5036603;28;20036;-81
2023/02/25 01:23:46;;;;;;;25.90;14.30;;;;;;;3.83;76.51;94139.94;5036021;28;20032;-81
2023/02/25 01:26:12;;;;;;;25.00;12.38;;;;;;;3.82;76.57;94118.56;5036091;28;20025;-81
2023/02/25 01:28:38;;;;;;;24.45;11.95;;;;;;;4.07;76.75;94140.88;5052566;28;20045;-81
2023/02/25 01:31:03;;;;;;;27.25;12.77;;;;;;;3.95;78.68;94114.22;5035951;28;20068;-81
2023/02/25 01:33:29;;;;;;;24.88;11.50;;;;;;;4.22;80.81;94111.53;5052547;28;20076;-81
2023/02/25 01:35:54;;;;;;;24.50;12.75;;;;;;;4.91;80.22;94135.00;5053866;28;20028;-81
2023/02/25 01:38:20;;;;;;;26.05;12.30;;;;;;;5.29;78.77;94128.84;5036011;28;20041;-81
2023/02/25 01:40:45;;;;;;;22.73;12.20;;;;;;;5.62;77.39;94116.97;5035832;28;20025;-81
2023/02/25 01:43:14;;;;;;;22.17;12.00;;;;;;;5.71;77.02;94107.72;5053898;28;20029;-81
2023/02/25 01:45:43;;;;;;;22.15;11.90;;;;;;;5.82;75.90;94115.47;5019265;28;20032;-81
2023/02/25 01:48:17;;;;;;;21.02;12.25;;;;;;;5.85;75.92;94124.72;5035479;28;20091;-81
2023/02/25 01:50:51;;;;;;;21.23;13.23;;;;;;;5.61;73.67;94125.63;5019091;28;20021;-80
2023/02/25 01:53:23;;;;;;;30.40;14.25;;;;;;;5.52;73.36;94124.56;5020095;28;20036;-80
2023/02/25 01:55:48;;;;;;;29.85;14.25;;;;;;;5.55;73.46;94129.50;5052137;28;20281;-80
2023/02/25 01:58:14;;;;;;;23.85;14.18;;;;;;;5.38;73.29;94133.31;5053464;28;20029;-81
2023/02/25 02:00:39;;;;;;;20.08;11.45;;;;;;;5.37;73.00;94136.81;5034950;28;20032;-81
2023/02/25 02:03:05;;;;;;;24.92;11.88;;;;;;;5.37;72.93;94141.94;5035586;28;20414;-81
2023/02/25 02:05:58;;;;;;;24.83;13.90;;;;;;;5.01;73.41;94121.44;5018870;28;20494;-81
2023/02/25 02:08:25;;;;;;;23.73;13.18;;;;;;;5.09;73.88;94137.97;5052171;28;20155;-81
2023/02/25 02:10:50;;;;;;;26.38;12.82;;;;;;;5.03;73.99;94138.44;5035421;28;20040;-80
2023/02/25 02:13:16;;;;;;;19.52;11.90;;;;;;;5.14;73.24;94117.06;5035119;28;20032;-81
2023/02/25 02:15:55;;;;;;;22.83;12.98;;;;;;;4.70;74.01;94131.34;5051786;28;20056;-81
2023/02/25 02:18:21;;;;;;;23.27;12.07;;;;;;;4.70;74.77;94101.28;5051878;28;20033;-81
2023/02/25 02:21:19;;;;;;;22.70;12.07;;;;;;;4.62;75.29;94097.63;5035018;28;20033;-81
2023/02/25 02:23:50;;;;;;;21.58;11.98;;;;;;;4.66;75.14;94104.22;5034890;28;20071;-81
2023/02/25 02:26:24;;;;;;;;;;;;;;;4.77;75.32;94112.00;5052026;28;20029;-80
2023/02/25 02:29:16;;;;;;;25.55;13.02;;;;;;;4.75;75.95;94095.81;5034976;28;19986;-81
2023/02/25 02:31:58;;;;;;;23.10;13.10;;;;;;;4.85;76.68;94083.13;5051587;28;20029;-80
2023/02/25 02:34:30;;;;;;;30.42;13.73;;;;;;;4.85;76.47;94083.97;5051533;28;20033;-81
2023/02/25 02:37:06;;;;;;;23.67;12.98;;;;;;;4.80;75.89;94090.38;5051098;28;20033;-81
2023/02/25 02:39:48;;;;;;;24.02;12.02;;;;;;;4.58;75.95;94066.16;5051437;28;20029;-81
2023/02/25 02:42:20;;;;;;;20.00;11.85;;;;;;;4.66;75.52;94074.16;5051579;28;20029;-81
2023/02/25 02:44:48;;;;;;;20.40;10.68;;;;;;;4.67;75.06;94080.94;5035342;28;20033;-81
2023/02/25 02:47:15;;;;;;;19.52;11.20;;;;;;;4.78;76.21;94076.78;5051195;28;20037;-81
2023/02/25 02:49:48;;;;;;;23.83;12.05;;;;;;;4.74;75.08;94065.06;5018248;28;20033;-81
2023/02/25 02:52:17;;;;;;;20.30;10.88;;;;;;;4.75;75.51;94054.66;5051112;28;20025;-81
2023/02/25 02:54:43;;;;;;;23.85;11.90;;;;;;;4.84;74.99;94040.31;5018365;28;20210;-81
2023/02/25 02:57:10;;;;;;;19.90;10.48;;;;;;;4.90;75.04;94043.28;5033919;28;20052;-81
2023/02/25 02:59:49;;;;;;;21.90;11.52;;;;;;;5.00;74.92;94051.13;5034422;28;20033;-81
2023/02/25 03:02:21;;;;;;;21.73;11.18;;;;;;;5.17;74.48;94051.66;5034870;28;20041;-81
2023/02/25 03:04:47;;;;;;;21.45;11.75;;;;;;;5.15;74.55;94055.16;5050533;28;20036;-81
2023/02/25 03:07:13;;;;;;;22.17;10.93;;;;;;;5.12;74.32;94041.69;5034191;28;20540;-81
2023/02/25 03:09:42;;;;;;;23.10;13.52;;;;;;;5.18;73.93;94033.50;5034442;28;20033;-81
2023/02/25 03:12:08;;;;;;;27.55;13.25;;;;;;;5.15;74.19;94039.72;5050067;28;20040;-80
2023/02/25 03:14:35;;;;;;;21.02;11.90;;;;;;;5.06;73.60;94040.38;5032538;28;20495;-81
2023/02/25 03:17:08;;;;;;;22.05;13.82;;;;;;;5.05;73.54;94025.88;5031929;28;20399;-81
2023/02/25 03:19:56;;;;;;;21.70;12.50;;;;;;;5.10;73.44;94041.00;5015799;28;20033;-81
2023/02/25 03:22:33;;;;;;;25.20;12.73;;;;;;;5.03;73.01;94040.59;5049311;28;20051;-81
2023/02/25 03:25:22;;;;;;;22.35;12.13;;;;;;;5.10;72.76;94034.09;5016770;28;20120;-80
2023/02/25 03:27:52;;;;;;;30.30;15.07;;;;;;;4.88;73.47;94032.25;5049319;28;20044;-81
2023/02/25 03:30:38;;;;;;;28.70;16.17;;;;;;;4.79;73.84;94022.66;5031806;28;20033;-81
2023/02/25 03:33:08;;;;;;;29.40;15.75;;;;;;;4.93;73.09;94039.63;5049308;28;20419;-81
2023/02/25 03:35:34;;;;;;;25.30;14.60;;;;;;;4.78;73.65;94044.13;5049832;28;20040;-81
2023/02/25 03:38:03;;;;;;;25.20;14.25;;;;;;;4.89;73.08;94044.19;5017028;28;20029;-81
2023/02/25 03:40:29;;;;;;;24.50;14.25;;;;;;;4.78;72.91;94051.88;5032838;28;20021;-81
2023/02/25 03:43:05;;;;;;;22.17;13.50;;;;;;;4.48;73.46;94035.13;5050067;28;20031;-81
2023/02/25 03:45:33;;;;;;;23.30;13.30;;;;;;;4.56;73.77;94062.06;5033878;28;20033;-81
2023/02/25 03:47:59;;;;;;;23.00;13.02;;;;;;;4.52;73.67;94055.50;5017052;28;20086;-81
2023/02/25 03:50:29;;;;;;;22.40;13.32;;;;;;;4.51;73.99;94071.84;5049893;28;20017;-81
2023/02/25 03:52:54;;;;;;;23.38;12.60;;;;;;;4.39;73.68;94053.78;5050164;28;20033;-81
2023/02/25 03:55:20;;;;;;;21.92;12.77;;;;;;;4.28;73.71;94045.19;5049934;28;20025;-82
2023/02/25 03:57:47;;;;;;;25.80;13.25;;;;;;;4.19;73.98;94028.66;5033194;28;20049;-81
2023/02/25 04:00:21;;;;;;;24.02;13.23;;;;;;;4.29;73.71;94033.94;5049754;28;20053;-81
2023/02/25 04:02:47;;;;;;;19.33;11.80;;;;;;;4.20;74.70;94025.97;5049988;28;20419;-81
2023/02/25 04:05:12;;;;;;;24.50;13.20;;;;;;;4.26;74.01;94024.72;5033097;28;20085;-80
2023/02/25 04:07:38;;;;;;;27.85;13.05;;;;;;;4.15;73.31;94017.78;5049882;28;20114;-81
2023/02/25 04:10:05;;;;;;;20.63;12.30;;;;;;;4.12;72.56;94009.44;5049761;28;20099;-81
2023/02/25 04:12:30;;;;;;;22.33;12.98;;;;;;;4.08;73.01;94020.88;5033252;28;20031;-81
2023/02/25 04:14:56;;;;;;;24.25;12.57;;;;;;;4.11;72.97;94021.47;5033317;28;20418;-81
2023/02/25 04:17:21;;;;;;;23.75;12.50;;;;;;;4.15;73.08;94029.78;5033191;28;20029;-81
2023/02/25 04:19:47;;;;;;;28.75;14.75;;;;;;;3.92;73.79;94018.53;5049561;28;20044;-81
2023/02/25 04:22:12;;;;;;;31.77;15.27;;;;;;;3.95;73.38;94037.13;5049885;28;20025;-81
2023/02/25 04:24:37;;;;;;;27.38;14.88;;;;;;;3.83;73.86;94029.47;5019022;28;20029;-81
2023/02/25 04:27:03;;;;;;;23.48;14.35;;;;;;;3.83;73.83;94037.16;5037222;28;20033;-81
2023/02/25 04:29:28;;;;;;;24.35;13.52;;;;;;;3.79;73.81;94039.94;5053510;28;20098;-81
2023/02/25 04:31:54;;;;;;;22.42;13.30;;;;;;;3.70;73.25;94047.44;5037140;28;20033;-81
2023/02/25 04:34:20;;;;;;;26.45;14.35;;;;;;;3.56;73.43;94031.22;5053389;28;20037;-81
2023/02/25 04:36:45;;;;;;;20.38;12.07;;;;;;;3.60;73.88;94031.84;5036685;28;20029;-81
2023/02/25 04:39:11;;;;;;;26.48;14.23;;;;;;;3.59;75.04;94032.75;5053373;28;20029;-82
2023/02/25 04:41:37;;;;;;;29.83;13.95;;;;;;;3.55;75.56;94021.06;5036557;28;20040;-81
2023/02/25 04:44:03;;;;;;;23.60;13.57;;;;;;;3.35;75.00;93996.75;5036745;28;20033;-82
2023/02/25 04:46:29;;;;;;;28.90;13.45;;;;;;;3.43;75.18;94007.31;5020311;28;20029;-81
2023/02/25 04:48:54;;;;;;;26.23;13.43;;;;;;;3.57;75.32;93991.78;5053215;28;20116;-81
2023/02/25 04:51:20;;;;;;;24.05;13.10;;;;;;;3.50;75.46;93956.34;5036335;28;20044;-81
2023/02/25 04:53:45;;;;;;;23.70;13.98;;;;;;;3.57;76.23;93978.94;5036633;28;20044;-81
2023/02/25 04:56:11;;;;;;;24.30;10.13;;;;;;;3.80;75.59;93976.53;5019761;28;20050;-82
2023/02/25 04:58:37;;;;;;;18.17;6.38;;;;;;;4.50;71.76;93977.59;5036218;28;20098;-82
2023/02/25 05:01:04;;;;;;;18.08;6.28;;;;;;;5.40;66.98;93959.78;5036331;28;20025;-81
2023/02/25 05:03:30;;;;;;;14.95;5.25;;;;;;;6.09;64.68;93963.03;5036405;28;20058;-81
2023/02/25 05:05:55;;;;;;;14.88;5.18;;;;;;;6.49;62.61;93959.84;5019668;28;20392;-81
2023/02/25 05:08:21;;;;;;;21.05;5.18;;;;;;;7.01;60.97;93952.22;5036027;28;20029;-81
2023/02/25 05:10:47;;;;;;;18.67;5.68;;;;;;;7.32;59.45;93961.66;5036256;28;20037;-80
2023/02/25 05:13:12;;;;;;;14.90;4.75;;;;;;;7.77;56.85;93948.41;5036560;28;20033;-81
2023/02/25 05:15:37;;;;;;;18.13;4.88;;;;;;;8.07;55.60;93944.91;5035949;28;20403;-81
2023/02/25 05:18:03;;;;;;;15.35;4.78;;;;;;;8.45;54.39;93937.41;5019423;28;20052;-79
2023/02/25 05:20:28;;;;;;;15.10;5.22;;;;;;;8.72;53.66;93958.25;5035954;28;20047;-79
2023/02/25 05:22:54;;;;;;;15.85;5.47;;;;;;;8.86;52.99;93930.28;5053403;28;20033;-79
2023/02/25 05:25:19;;;;;;;17.02;4.93;;;;;;;8.95;52.29;93929.47;5052364;28;20029;-79
2023/02/25 05:27:45;;;;;;;19.58;5.18;;;;;;;9.23;52.46;93937.34;5052185;28;20481;-78
2023/02/25 05:30:11;;;;;;;16.45;4.75;;;;;;;9.25;52.04;93935.41;5052163;28;20033;-78
2023/02/25 05:32:37;;;;;;;18.40;5.30;;;;;;;9.57;50.65;93935.03;5035472;28;20037;-78
2023/02/25 05:35:04;;;;;;;18.73;5.20;;;;;;;9.63;51.03;93937.88;5051788;28;20071;-78
2023/02/25 05:37:32;;;;;;;19.92;5.20;;;;;;;9.61;50.42;93938.97;5052065;28;20555;-77
2023/02/25 05:39:58;;;;;;;15.68;5.47;;;;;;;9.79;50.64;93959.81;5035379;28;20170;-75
2023/02/25 05:42:23;;;;;;;18.45;7.78;;;;;;;9.70;51.90;93961.47;5052030;28;20037;-75
2023/02/25 05:44:49;;;;;;;18.48;10.13;;;;;;;9.40;54.02;94011.78;5053010;28;20487;-75
2023/02/25 05:47:14;;;;;;;19.08;10.27;;;;;;;9.10;54.75;94036.06;5035319;28;20529;-75
2023/02/25 05:49:41;;;;;;;19.42;10.65;;;;;;;8.41;56.45;94026.59;5051738;28;20083;-75
2023/02/25 05:52:07;;;;;;;23.35;12.10;;;;;;;8.14;57.75;94058.25;5051833;28;20029;-75
2023/02/25 05:54:32;;;;;;;27.38;13.88;;;;;;;7.59;59.35;94037.84;5051632;28;20040;-75
2023/02/25 05:56:58;;;;;;;26.58;14.43;;;;;;;7.25;60.82;94052.72;5034962;28;20063;-75
2023/02/25 05:59:23;;;;;;;21.42;11.68;;;;;;;6.83;62.03;94037.19;5034968;28;20537;-75
2023/02/25 06:01:49;;;;;;;23.23;13.30;;;;;;;6.63;62.90;94073.16;5051445;28;20050;-75
2023/02/25 06:04:14;;;;;;;18.50;11.95;;;;;;;6.37;63.87;94069.19;5051489;28;20025;-75
2023/02/25 06:06:40;;;;;;;22.23;12.07;;;;;;;6.18;64.65;94074.97;5018148;28;20036;-75
2023/02/25 06:09:08;;;;;;;22.60;11.88;;;;;;;6.12;64.90;94076.25;5034720;28;20403;-75
2023/02/25 06:11:33;;;;;;;18.48;11.68;;;;;;;6.09;65.02;94084.22;5035032;28;20033;-75
2023/02/25 06:13:59;;;;;;;26.67;12.82;;;;;;;5.97;65.70;94067.94;5051251;28;20135;-75
2023/02/25 06:16:30;;;;;;;27.27;12.68;;;;;;;5.77;67.19;94084.91;5034471;28;20025;-75
2023/02/25 06:18:56;;;;;;;23.90;12.23;;;;;;;5.86;67.33;94088.53;5035511;28;20040;-75
2023/02/25 06:21:22;;;;;;;24.65;14.88;;;;;;;5.94;67.40;94078.50;5034654;28;20459;-75
2023/02/25 06:23:50;;;;;;;24.40;12.80;;;;;;;5.93;67.68;94051.06;5051283;28;20037;-75
2023/02/25 06:26:15;;;;;;;22.00;11.98;;;;;;;5.95;67.85;94030.31;5051180;28;20091;-75
2023/02/25 06:28:41;;;;;;;53.95;30.00;;;;;;;5.93;68.07;94037.31;5050920;28;20071;-75
2023/02/25 06:31:11;;;;;;;28.38;17.08;;;;;;;6.21;68.01;94052.34;5017777;28;20032;-75
2023/02/25 06:33:38;;;;;;;31.33;18.60;;;;;;;6.39;67.34;94047.50;5050946;28;20104;-75
2023/02/25 06:36:03;;;;;;;35.50;19.48;;;;;;;6.37;67.44;94046.81;5050775;28;20287;-75
2023/02/25 06:38:30;;;;;;;32.67;20.80;;;;;;;6.44;67.48;94065.22;5050891;28;20329;-75
2023/02/25 06:40:56;;;;;;;31.52;17.77;;;;;;;6.48;66.46;94025.31;5051987;28;20025;-75
2023/02/25 06:43:21;;;;;;;31.98;15.98;;;;;;;6.19;67.30;94018.13;5050749;28;20033;-75
2023/02/25 06:45:47;;;;;;;25.17;14.88;;;;;;;6.53;67.27;94036.09;5017469;28;20039;-75
2023/02/25 06:48:12;;;;;;;25.15;14.07;;;;;;;6.61;67.51;94045.81;5049656;28;20040;-75
2023/02/25 06:50:38;;;;;;;29.05;17.13;;;;;;;6.71;67.02;94047.56;5051687;28;20028;-75
2023/02/25 06:53:03;;;;;;;27.90;15.05;;;;;;;6.72;66.56;94028.53;5034038;28;20037;-75
2023/02/25 06:55:29;;;;;;;27.92;14.45;;;;;;;6.91;65.94;94034.81;5033788;28;20487;-75
2023/02/25 06:57:54;;;;;;;25.98;15.38;;;;;;;6.89;66.58;94027.19;5033613;28;20499;-75
2023/02/25 07:00:20;;;;;;;28.35;14.90;;;;;;;7.16;65.94;94042.19;5033735;28;20032;-75
2023/02/25 07:02:45;;;;;;;23.60;13.35;;;;;;;7.48;63.87;94014.66;5051398;28;20115;-75
2023/02/25 07:05:11;;;;;;;29.05;13.40;;;;;;;7.87;63.24;94028.59;5033668;28;20032;-75
2023/02/25 07:07:36;;;;;;;22.10;12.98;;;;;;;8.28;61.99;94009.53;5050139;28;20033;-75
2023/02/25 07:10:02;;;;;;;24.35;12.80;;;;;;;7.67;63.39;93972.56;5051417;28;20025;-75
2023/02/25 07:12:27;;;;;;;21.38;11.20;;;;;;;8.15;62.45;93992.59;5017237;28;20044;-75
2023/02/25 07:14:53;;;;;;;33.88;12.23;;;;;;;8.53;61.35;93980.72;5050229;28;20036;-75
2023/02/25 07:17:18;;;;;;;19.45;11.18;;;;;;;8.28;62.03;93973.31;5051678;28;20494;-75
2023/02/25 07:19:44;;;;;;;27.80;11.75;;;;;;;8.43;62.33;93971.16;5051219;28;20526;-75
2023/02/25 07:22:16;;;;;;;23.92;12.05;;;;;;;8.66;60.62;93950.19;5051546;28;20382;-75
2023/02/25 07:24:42;;;;;;;18.13;10.60;;;;;;;8.61;60.24;93944.59;5033327;28;20048;-75
2023/02/25 07:27:07;;;;;;;23.08;11.25;;;;;;;8.53;61.17;93950.47;5016865;28;20032;-75
2023/02/25 07:29:33;;;;;;;25.40;12.20;;;;;;;8.66;61.62;93950.19;5033318;28;20071;-75
2023/02/25 07:31:58;;;;;;;26.00;12.73;;;;;;;8.76;61.27;93945.03;5051352;28;20037;-75
2023/02/25 07:34:25;;;;;;;25.73;13.27;;;;;;;8.89;60.61;93937.81;5049818;28;20033;-75
2023/02/25 07:36:50;;;;;;;28.60;15.13;;;;;;;8.85;60.80;93946.78;5033473;28;20025;-75
2023/02/25 07:39:15;;;;;;;28.13;16.95;;;;;;;8.87;60.81;93922.38;5033192;28;20422;-75
2023/02/25 07:41:41;;;;;;;26.27;14.50;;;;;;;8.98;61.04;93930.97;5033152;28;20029;-75
2023/02/25 07:44:06;;;;;;;18.65;10.98;;;;;;;8.99;60.18;93930.00;5033115;28;20033;-75
2023/02/25 07:46:32;;;;;;;21.20;11.43;;;;;;;9.09;60.11;93913.50;5051101;28;20078;-75
2023/02/25 07:48:57;;;;;;;26.48;14.30;;;;;;;8.99;60.18;93904.09;5033091;28;20060;-75
2023/02/25 07:51:23;;;;;;;24.00;12.48;;;;;;;9.17;60.07;93912.81;5049688;28;20033;-75
2023/02/25 07:53:49;;;;;;;25.30;13.32;;;;;;;9.06;60.39;93907.78;5049570;28;20032;-75
2023/02/25 07:56:15;;;;;;;22.23;10.75;;;;;;;9.39;58.79;93899.50;5032743;28;20102;-75
2023/02/25 07:58:41;;;;;;;23.33;12.50;;;;;;;9.13;59.54;93896.69;5049193;28;20457;-75
2023/02/25 08:01:28;;;;;;;30.75;13.48;;;;;;;9.20;59.32;93896.97;5033162;28;20564;-75
2023/02/25 08:03:55;;;;;;;27.80;13.80;;;;;;;9.44;58.47;93898.25;5032848;28;20075;-75
2023/02/25 08:06:20;;;;;;;25.90;13.40;;;;;;;9.48;58.43;93891.84;5049497;28;20071;-75
2023/02/25 08:08:46;;;;;;;23.23;14.13;;;;;;;9.81;58.14;93873.09;5032721;28;20422;-75
2023/02/25 08:11:12;;;;;;;29.45;14.60;;;;;;;10.29;56.18;93876.38;5050682;28;20469;-76
2023/02/25 08:13:38;;;;;;;28.50;13.20;;;;;;;9.94;55.61;93869.34;5049358;28;20418;-75
2023/02/25 08:16:05;;;;;;;26.08;12.85;;;;;;;10.10;56.24;93886.84;5049360;28;20048;-75
2023/02/25 08:18:30;;;;;;;38.03;18.90;;;;;;;10.03;55.95;93876.25;5050502;28;20033;-76
2023/02/25 08:20:57;;;;;;;33.88;15.50;;;;;;;10.25;55.43;93868.03;5032864;28;20480;-75
2023/02/25 08:23:25;;;;;;;165.07;58.47;;;;;;;10.67;54.50;93877.00;5032977;28;20037;-75
2023/02/25 08:25:56;;;;;;;31.17;14.20;;;;;;;10.39;53.73;93861.56;5016407;28;20059;-75
2023/02/25 08:28:22;;;;;;;52.05;21.10;;;;;;;10.59;54.44;93880.38;5033233;28;20045;-75
2023/02/25 08:30:48;;;;;;;31.45;16.20;;;;;;;10.44;54.69;93869.69;5049121;28;20423;-75
2023/02/25 08:33:14;;;;;;;31.92;14.88;;;;;;;10.31;54.22;93871.03;5032569;28;20029;-75
2023/02/25 08:35:39;;;;;;;29.15;14.73;;;;;;;10.43;54.16;93885.44;5015852;28;20068;-75
2023/02/25 08:38:04;;;;;;;41.90;19.52;;;;;;;10.55;53.09;93873.84;5050464;28;20048;-75
2023/02/25 08:40:30;;;;;;;25.40;13.38;;;;;;;10.52;53.43;93864.56;5049118;28;20043;-75
2023/02/25 08:42:56;;;;;;;26.55;12.30;;;;;;;10.29;53.66;93864.22;5049066;28;20487;-75
2023/02/25 08:45:22;;;;;;;23.58;12.18;;;;;;;10.32;54.10;93854.50;5048924;28;20029;-75
2023/02/25 08:47:47;;;;;;;24.92;11.52;;;;;;;10.32;54.24;93851.91;5032265;28;20138;-75
2023/02/25 08:50:12;;;;;;;26.83;10.63;;;;;;;10.32;53.48;93851.91;5032372;28;20538;-75
2023/02/25 08:52:38;;;;;;;24.50;11.73;;;;;;;10.26;54.14;93858.47;5050177;28;20410;-75
2023/02/25 08:55:04;;;;;;;21.52;12.40;;;;;;;10.43;54.35;93856.88;5049026;28;20415;-75
2023/02/25 08:57:29;;;;;;;26.63;12.93;;;;;;;10.38;54.09;93846.09;5050133;28;20495;-75
2023/02/25 08:59:55;;;;;;;32.95;13.52;;;;;;;10.39;53.65;93843.38;5032484;28;20035;-75
2023/02/25 09:02:20;;;;;;;25.50;11.85;;;;;;;10.37;53.87;93842.69;5049051;28;20029;-75
2023/02/25 09:04:46;;;;;;;23.33;11.18;;;;;;;10.52;54.02;93837.78;5016111;28;20044;-75
2023/02/25 09:07:15;;;;;;;21.42;10.95;;;;;;;10.66;53.82;93845.03;5048729;28;20025;-75
2023/02/25 09:09:41;;;;;;;26.70;12.15;;;;;;;10.54;53.94;93851.44;5016973;28;20029;-75
2023/02/25 09:12:06;;;;;;;25.85;13.20;;;;;;;10.65;53.44;93848.59;5051829;28;20033;-75
2023/02/25 09:14:33;;;;;;;23.08;10.75;;;;;;;10.44;53.41;93835.94;5052384;28;20515;-76
2023/02/25 09:17:01;;;;;;;28.65;13.30;;;;;;;10.51;54.08;93841.38;5052426;28;20059;-75
2023/02/25 09:19:27;;;;;;;30.15;12.27;;;;;;;10.41;53.66;93832.84;5036032;28;20052;-73
2023/02/25 09:21:52;;;;;;;30.50;12.23;;;;;;;10.51;54.07;93815.41;5052359;28;20083;-76
2023/02/25 09:24:18;;;;;;;23.55;12.25;;;;;;;10.50;54.11;93818.94;5052478;28;20037;-75
2023/02/25 09:26:43;;;;;;;20.83;12.38;;;;;;;10.55;54.03;93824.50;5035628;28;20571;-75
2023/02/25 09:29:09;;;;;;;20.83;11.88;;;;;;;10.60;54.16;93831.84;5018959;28;20072;-74
2023/02/25 09:31:35;;;;;;;28.65;13.25;;;;;;;10.54;54.02;93829.84;5052035;28;20029;-73
2023/02/25 09:34:03;;;;;;;24.98;12.32;;;;;;;10.47;53.77;93834.81;5052025;28;20032;-72
2023/02/25 09:36:29;;;;;;;25.38;14.05;;;;;;;10.49;54.49;93825.09;5035648;28;20044;-72
2023/02/25 09:38:55;;;;;;;28.55;13.30;;;;;;;10.53;53.67;93816.06;5035405;28;20029;-73
2023/02/25 09:41:34;;;;;;;26.90;13.15;;;;;;;10.45;54.21;93810.81;5035403;28;20025;-74
2023/02/25 09:44:21;;;;;;;24.58;12.98;;;;;;;10.21;54.95;93762.88;5036762;28;20388;-74
2023/02/25 09:47:22;;;;;;;26.77;12.52;;;;;;;10.19;55.23;93780.38;5051770;28;20399;-71
2023/02/25 09:49:52;;;;;;;23.73;12.53;;;;;;;10.22;56.33;93794.84;4982245;28;20046;-73
2023/02/25 09:52:37;;;;;;;47.08;29.25;;;;;;;10.42;55.75;93801.53;5035486;28;20295;-73
2023/02/25 09:55:07;;;;;;;33.88;17.13;;;;;;;10.37;55.56;93774.41;5052830;28;20073;-73
2023/02/25 09:57:40;;;;;;;37.80;16.08;;;;;;;10.21;56.19;93760.28;5034843;28;20462;-73
2023/02/25 10:00:13;;;;;;;32.10;14.77;;;;;;;10.29;56.66;93764.75;5035380;28;20040;-73
2023/02/25 10:03:25;;;;;;;34.65;16.88;;;;;;;10.51;56.50;93776.44;5019162;28;20114;-73
2023/02/25 10:05:59;;;;;;;31.95;15.80;;;;;;;10.47;56.92;93762.97;4974978;28;20062;-73
2023/02/25 10:08:30;;;;;;;33.97;18.25;;;;;;;10.56;56.91;93766.41;4958471;28;20038;-73
2023/02/25 10:11:09;;;;;;;;;;;;;;;10.58;56.64;93768.84;5029003;28;20041;-73
2023/02/25 10:13:40;;;;;;;23.65;13.82;;;;;;;10.51;56.57;93769.47;5051215;28;20027;-73
2023/02/25 10:16:30;;;;;;;23.40;14.18;;;;;;;10.62;56.22;93772.78;5052551;28;20044;-73
2023/02/25 10:19:00;;;;;;;27.45;13.05;;;;;;;10.65;55.89;93755.09;5051180;28;20025;-73
2023/02/25 10:21:33;;;;;;;28.10;14.63;;;;;;;10.62;55.98;93763.22;5052352;28;20056;-79
2023/02/25 10:24:02;;;;;;;29.42;13.55;;;;;;;10.69;55.67;93756.41;5034660;28;20404;-76
2023/02/25 10:26:31;;;;;;;30.55;13.07;;;;;;;10.67;55.26;93726.38;5052719;28;20033;-77
2023/02/25 10:29:04;;;;;;;26.00;11.45;;;;;;;10.69;54.56;93733.03;5051323;28;20676;-79
2023/02/25 10:31:31;;;;;;;25.27;12.13;;;;;;;10.61;55.11;93716.59;5034785;28;20041;-79
2023/02/25 10:33:57;;;;;;;24.40;11.73;;;;;;;10.60;54.91;93699.41;5034736;28;20487;-77
2023/02/25 10:36:38;;;;;;;20.75;11.38;;;;;;;10.79;54.49;93708.75;5051090;28;20033;-75
2023/02/25 10:39:03;;;;;;;;;;;;;;;10.91;54.60;93697.91;5035193;28;20033;-79
2023/02/25 10:41:29;;;;;;;35.58;16.00;;;;;;;10.85;54.80;93695.16;5051167;28;19927;-79
2023/02/25 10:43:55;;;;;;;29.90;16.02;;;;;;;10.86;54.94;93696.75;5034618;28;20033;-79
2023/02/25 10:46:30;;;;;;;35.75;17.77;;;;;;;10.88;55.06;93702.63;5034274;28;20040;-79
2023/02/25 10:49:00;;;;;;;35.60;16.23;;;;;;;10.88;54.41;93682.66;5050671;28;20037;-79
2023/02/25 10:51:27;;;;;;;52.55;23.75;;;;;;;11.04;53.39;93691.50;5050904;28;20090;-78
2023/02/25 10:53:52;;;;;;;39.28;18.88;;;;;;;11.02;53.97;93680.44;5052031;28;20040;-79
2023/02/25 10:56:21;;;;;;;31.45;16.63;;;;;;;11.10;53.42;93662.28;5050536;28;20045;-79
2023/02/25 10:59:24;;;;;;;32.08;14.60;;;;;;;11.14;52.89;93651.41;5050708;28;20025;-79
2023/02/25 11:01:49;;;;;;;29.25;14.65;;;;;;;11.11;53.37;93643.91;5036808;28;20033;-79
2023/02/25 11:04:17;;;;;;;30.20;13.30;;;;;;;11.22;52.17;93653.19;5050698;28;20058;-78
2023/02/25 11:06:43;;;;;;;24.85;11.70;;;;;;;11.29;51.88;93651.59;5017584;28;20033;-79
2023/02/25 11:09:18;;;;;;;30.27;12.73;;;;;;;11.41;51.47;93654.69;5050572;28;20044;-79
2023/02/25 11:11:57;;;;;;;25.65;12.50;;;;;;;11.37;51.57;93630.00;5051850;28;20037;-79
2023/02/25 11:14:32;;;;;;;34.55;12.30;;;;;;;11.39;51.62;93626.28;5034339;28;20035;-78
2023/02/25 11:17:06;;;;;;;29.80;11.70;;;;;;;11.44;50.75;93635.38;5050411;28;20040;-79
2023/02/25 11:19:34;;;;;;;26.25;10.18;;;;;;;11.58;50.33;93638.13;5017721;28;20032;-79
2023/02/25 11:22:06;;;;;;;28.63;10.70;;;;;;;11.68;49.49;93642.38;5033331;28;20029;-79
2023/02/25 11:24:32;;;;;;;32.45;9.68;;;;;;;11.54;46.63;93625.63;5033959;28;20025;-79
2023/02/25 11:26:58;;;;;;;18.27;5.93;;;;;;;11.97;43.33;93615.88;5040517;28;20050;-79
2023/02/25 11:29:37;;;;;;;20.45;4.32;;;;;;;12.40;40.48;93619.09;5068115;28;20119;-79